Home

PKWA Terminal Aerodrome Forecast (TAF)small logo


TAF provided by NWS Guam
2014/12/21 06:25
TAF PKWA 210520Z 2106/2206 06014G22KT P6SM VCSH FEW020 SCT050 SCT120

      



Site Map | Contact Us | Copyright © 2007 Atmospheric Technology Services Company. All rights reserved.